createdAt,value
2023-04-04T00:02:01.021Z,4.43
2023-04-04T00:04:30.113Z,4.51
2023-04-04T00:06:57.797Z,4.44
2023-04-04T00:09:25.452Z,4.27
2023-04-04T00:11:53.500Z,4.27
2023-04-04T00:14:21.628Z,4.39
2023-04-04T00:16:49.342Z,4.25
2023-04-04T00:19:18.282Z,4.40
2023-04-04T00:21:47.738Z,4.38
2023-04-04T00:24:15.465Z,4.13
2023-04-04T00:26:43.356Z,3.96
2023-04-04T00:29:10.982Z,3.96
2023-04-04T00:31:38.811Z,4.11
2023-04-04T00:34:06.919Z,3.77
2023-04-04T00:36:34.660Z,3.83
2023-04-04T00:39:03.704Z,3.98
2023-04-04T00:41:31.469Z,3.80
2023-04-04T00:43:59.157Z,3.98
2023-04-04T00:46:27.191Z,3.92
2023-04-04T00:48:55.071Z,4.02
2023-04-04T00:51:22.830Z,4.06
2023-04-04T00:53:52.440Z,4.13
2023-04-04T00:56:22.750Z,4.05
2023-04-04T00:58:50.613Z,3.85
2023-04-04T01:01:18.485Z,3.56
2023-04-04T01:03:46.441Z,3.54
2023-04-04T01:06:15.389Z,3.68
2023-04-04T01:08:44.023Z,3.61
2023-04-04T01:11:11.705Z,3.55
2023-04-04T01:13:41.092Z,3.83
2023-04-04T01:16:09.044Z,3.67
2023-04-04T01:18:37.534Z,3.79
2023-04-04T01:21:10.615Z,3.78
2023-04-04T01:23:46.302Z,3.59
2023-04-04T01:26:15.352Z,3.64
2023-04-04T01:28:43.045Z,3.43
2023-04-04T01:31:12.174Z,3.57
2023-04-04T01:33:45.662Z,3.47
2023-04-04T01:36:18.882Z,3.56
2023-04-04T01:38:54.229Z,3.47
2023-04-04T01:41:24.948Z,3.38
2023-04-04T01:43:53.406Z,3.25
2023-04-04T01:46:21.088Z,3.31
2023-04-04T01:48:48.869Z,3.36
2023-04-04T01:51:17.230Z,3.46
2023-04-04T01:53:44.920Z,3.41
2023-04-04T01:56:13.167Z,3.03
2023-04-04T01:58:43.340Z,3.31
2023-04-04T02:01:11.057Z,3.36
2023-04-04T02:03:38.732Z,3.31
2023-04-04T02:06:07.857Z,3.12
2023-04-04T02:08:35.684Z,3.10
2023-04-04T02:11:03.403Z,3.12
2023-04-04T02:13:31.062Z,3.12
2023-04-04T02:16:00.211Z,2.81
2023-04-04T02:18:28.359Z,2.97
2023-04-04T02:20:57.702Z,3.09
2023-04-04T02:23:25.854Z,2.95
2023-04-04T02:25:53.555Z,2.75
2023-04-04T02:28:21.304Z,2.69
2023-04-04T02:30:50.060Z,2.73
2023-04-04T02:33:19.146Z,2.79
2023-04-04T02:35:46.870Z,2.71
2023-04-04T02:38:14.583Z,2.64
2023-04-04T02:40:42.883Z,2.61
2023-04-04T02:43:10.832Z,2.61
2023-04-04T02:45:38.541Z,2.34
2023-04-04T02:48:07.664Z,2.60
2023-04-04T02:50:37.043Z,2.67
2023-04-04T02:53:04.742Z,2.68
2023-04-04T02:55:32.392Z,2.67
2023-04-04T02:58:01.850Z,2.63
2023-04-04T03:00:29.759Z,2.59
2023-04-04T03:02:58.302Z,2.57
2023-04-04T03:05:26.732Z,2.57
2023-04-04T03:07:57.443Z,2.57
2023-04-04T03:10:25.258Z,2.59
2023-04-04T03:12:52.976Z,2.46
2023-04-04T03:15:21.444Z,2.34
2023-04-04T03:17:49.201Z,2.20
2023-04-04T03:20:16.884Z,2.33
2023-04-04T03:22:44.529Z,2.27
2023-04-04T03:25:13.618Z,2.24
2023-04-04T03:27:41.312Z,2.20
2023-04-04T03:30:10.019Z,1.92
2023-04-04T03:32:39.338Z,2.09
2023-04-04T03:35:08.133Z,2.08
2023-04-04T03:37:36.454Z,1.89
2023-04-04T03:40:04.301Z,2.03
2023-04-04T03:42:35.683Z,2.05
2023-04-04T03:45:03.901Z,1.95
2023-04-04T03:47:31.616Z,1.81
2023-04-04T03:49:59.339Z,1.88
2023-04-04T03:52:27.651Z,1.95
2023-04-04T03:54:55.472Z,1.95
2023-04-04T03:57:23.166Z,1.95
2023-04-04T03:59:52.275Z,1.72
2023-04-04T04:02:20.059Z,1.98
2023-04-04T04:04:47.848Z,1.97
2023-04-04T04:07:15.518Z,1.83
2023-04-04T04:09:43.150Z,2.00
2023-04-04T04:12:10.863Z,2.05
2023-04-04T04:14:38.520Z,2.06
2023-04-04T04:17:07.621Z,2.05
2023-04-04T04:19:35.893Z,1.84
2023-04-04T04:22:03.570Z,1.75
2023-04-04T04:24:31.300Z,1.76
2023-04-04T04:26:59.003Z,1.77
2023-04-04T04:29:26.658Z,1.78
2023-04-04T04:31:54.844Z,1.58
2023-04-04T04:34:24.672Z,1.55
2023-04-04T04:36:53.791Z,1.69
2023-04-04T04:39:21.695Z,1.71
2023-04-04T04:41:49.509Z,1.89
2023-04-04T04:44:17.244Z,1.99
2023-04-04T04:46:44.895Z,1.97
2023-04-04T04:49:12.621Z,1.71
2023-04-04T04:51:42.577Z,1.81
2023-04-04T04:54:11.188Z,1.67
2023-04-04T04:56:38.891Z,1.55
2023-04-04T04:59:09.047Z,1.64
2023-04-04T05:01:37.020Z,1.52
2023-04-04T05:04:04.902Z,1.84
2023-04-04T05:06:32.687Z,1.61
2023-04-04T05:09:02.295Z,1.51
2023-04-04T05:11:30.020Z,1.58
2023-04-04T05:13:57.730Z,1.73
2023-04-04T05:16:25.464Z,1.63
2023-04-04T05:18:53.146Z,1.85
2023-04-04T05:21:20.857Z,1.95
2023-04-04T05:23:48.645Z,1.83
2023-04-04T05:26:17.688Z,1.87
2023-04-04T05:28:45.374Z,2.00
2023-04-04T05:31:13.230Z,2.02
2023-04-04T05:33:40.953Z,2.04
2023-04-04T05:36:08.799Z,2.34
2023-04-04T05:38:37.147Z,1.95
2023-04-04T05:41:04.882Z,2.38
2023-04-04T05:43:33.922Z,2.53
2023-04-04T05:46:01.628Z,2.62
2023-04-04T05:48:29.366Z,2.46
2023-04-04T05:50:57.039Z,2.36
2023-04-04T05:53:24.731Z,2.31
2023-04-04T05:55:53.576Z,2.35
2023-04-04T05:58:21.332Z,2.77
2023-04-04T06:00:50.428Z,2.73
2023-04-04T06:03:20.402Z,2.90
2023-04-04T06:05:51.475Z,2.74
2023-04-04T06:08:19.168Z,2.81
2023-04-04T06:10:46.887Z,3.04
2023-04-04T06:13:14.609Z,3.40
2023-04-04T06:15:42.372Z,3.38
2023-04-04T06:18:11.549Z,3.88
2023-04-04T06:20:39.457Z,3.63
2023-04-04T06:23:07.267Z,3.66
2023-04-04T06:25:35.080Z,4.13
2023-04-04T06:28:04.359Z,3.90
2023-04-04T06:30:32.019Z,4.26
2023-04-04T06:32:59.712Z,4.06
2023-04-04T06:35:28.936Z,4.36
2023-04-04T06:37:56.921Z,4.40
2023-04-04T06:40:24.678Z,4.22
2023-04-04T06:42:55.100Z,4.65
2023-04-04T06:45:23.592Z,4.31
2023-04-04T06:47:51.809Z,4.12
2023-04-04T06:50:19.748Z,4.66
2023-04-04T06:52:48.933Z,4.80
2023-04-04T06:55:17.016Z,4.76
2023-04-04T06:57:44.748Z,4.85
2023-04-04T07:00:13.803Z,4.89
2023-04-04T07:02:41.511Z,4.78
2023-04-04T07:05:10.100Z,4.44
2023-04-04T07:07:37.741Z,4.72
2023-04-04T07:10:07.780Z,4.05
2023-04-04T07:12:35.676Z,3.80
2023-04-04T07:15:03.943Z,4.55
2023-04-04T07:17:32.298Z,4.01
2023-04-04T07:20:00.635Z,4.85
2023-04-04T07:22:29.460Z,4.29
2023-04-04T07:24:57.667Z,4.68
2023-04-04T07:27:26.737Z,5.36
2023-04-04T07:29:54.445Z,5.65
2023-04-04T07:32:24.501Z,5.70
2023-04-04T07:34:52.576Z,5.85
2023-04-04T07:37:21.575Z,5.74
2023-04-04T07:39:49.990Z,5.69
2023-04-04T07:42:22.935Z,6.06
2023-04-04T07:44:52.188Z,6.19
2023-04-04T07:47:20.635Z,5.65
2023-04-04T07:49:48.469Z,5.44
2023-04-04T07:52:16.459Z,5.45
2023-04-04T07:54:44.669Z,6.09
2023-04-04T07:57:12.323Z,6.11
2023-04-04T07:59:39.994Z,5.90
2023-04-04T08:02:09.117Z,5.92
2023-04-04T08:04:36.885Z,6.14
2023-04-04T08:07:04.620Z,6.12
2023-04-04T08:09:34.546Z,5.89
2023-04-04T08:12:02.717Z,5.85
2023-04-04T08:14:30.541Z,5.98
2023-04-04T08:16:58.448Z,6.22
2023-04-04T08:19:27.540Z,5.58
2023-04-04T08:21:55.872Z,6.14
2023-04-04T08:24:25.121Z,6.24
2023-04-04T08:27:04.422Z,5.66
2023-04-04T08:29:34.478Z,6.66
2023-04-04T08:32:02.380Z,6.89
2023-04-04T08:34:32.058Z,6.61
2023-04-04T08:37:00.074Z,6.42
2023-04-04T08:39:28.162Z,6.10
2023-04-04T08:42:01.377Z,5.91
2023-04-04T08:44:30.013Z,6.11
2023-04-04T08:46:57.923Z,6.77
2023-04-04T08:49:28.073Z,6.68
2023-04-04T08:51:58.444Z,6.65
2023-04-04T08:54:27.872Z,7.35
2023-04-04T08:56:55.694Z,7.04
2023-04-04T08:59:23.471Z,6.43
2023-04-04T09:01:53.880Z,6.64
2023-04-04T09:04:22.867Z,7.14
2023-04-04T09:06:51.426Z,7.20
2023-04-04T09:09:21.435Z,7.73
2023-04-04T09:11:49.643Z,7.19
2023-04-04T09:14:17.590Z,7.07
2023-04-04T09:16:45.350Z,6.83
2023-04-04T09:19:13.054Z,7.06
2023-04-04T09:21:40.766Z,7.14
2023-04-04T09:24:09.073Z,7.64
2023-04-04T09:26:50.813Z,7.46
2023-04-04T09:29:19.550Z,7.11
2023-04-04T09:31:49.362Z,7.02
2023-04-04T09:34:18.538Z,7.69
2023-04-04T09:36:47.026Z,7.53
2023-04-04T09:39:16.553Z,7.71
2023-04-04T09:41:45.914Z,7.85
2023-04-04T09:44:15.094Z,7.50
2023-04-04T09:46:42.965Z,7.88
2023-04-04T09:49:13.164Z,7.72
2023-04-04T09:51:42.458Z,8.28
2023-04-04T09:54:18.567Z,8.03
2023-04-04T09:56:50.647Z,7.61
2023-04-04T09:59:20.006Z,7.66
2023-04-04T10:01:51.162Z,7.49
2023-04-04T10:04:19.743Z,7.53
2023-04-04T10:06:47.715Z,7.53
2023-04-04T10:09:16.441Z,8.06
2023-04-04T10:11:44.152Z,7.84
2023-04-04T10:14:12.224Z,8.39
2023-04-04T10:16:46.164Z,7.82
2023-04-04T10:19:15.472Z,7.38
2023-04-04T10:21:43.387Z,7.65
2023-04-04T10:24:12.151Z,7.54
2023-04-04T10:26:39.879Z,7.82
2023-04-04T10:29:07.580Z,8.22
2023-04-04T10:31:35.761Z,8.97
2023-04-04T10:34:12.826Z,9.01
2023-04-04T10:36:46.397Z,9.29
2023-04-04T10:39:15.639Z,8.28
2023-04-04T10:41:43.520Z,8.39
2023-04-04T10:44:24.561Z,8.13
2023-04-04T10:46:54.738Z,8.54
2023-04-04T10:49:24.174Z,8.59
2023-04-04T10:51:56.265Z,9.38
2023-04-04T10:54:26.303Z,9.28
2023-04-04T10:56:54.137Z,8.25
2023-04-04T10:59:21.979Z,9.21
2023-04-04T11:01:58.100Z,9.25
2023-04-04T11:04:42.413Z,8.52
2023-04-04T11:07:14.847Z,9.14
2023-04-04T11:09:52.981Z,8.83
2023-04-04T11:12:28.804Z,9.20
2023-04-04T11:15:08.485Z,8.76
2023-04-04T11:18:02.810Z,9.29
2023-04-04T11:20:36.622Z,9.32
2023-04-04T11:23:09.858Z,9.17
2023-04-04T11:25:42.152Z,9.90
2023-04-04T11:28:26.556Z,10.04
2023-04-04T11:31:34.642Z,9.11
2023-04-04T11:34:05.863Z,8.82
2023-04-04T11:36:56.012Z,8.89
2023-04-04T11:39:28.679Z,9.78
2023-04-04T11:41:58.810Z,9.35
2023-04-04T11:44:30.342Z,9.78
2023-04-04T11:47:02.611Z,10.23
2023-04-04T11:49:32.231Z,10.27
2023-04-04T11:52:05.502Z,9.98
2023-04-04T11:54:33.399Z,9.89
2023-04-04T11:57:01.619Z,9.57
2023-04-04T11:59:30.404Z,9.32
2023-04-04T12:01:58.312Z,10.55
2023-04-04T12:04:27.611Z,10.00
2023-04-04T12:06:56.571Z,10.01
2023-04-04T12:09:27.275Z,10.25
2023-04-04T12:11:56.929Z,9.75
2023-04-04T12:14:25.806Z,10.05
2023-04-04T12:16:55.145Z,10.11
2023-04-04T12:19:24.911Z,10.76
2023-04-04T12:21:53.526Z,10.96
2023-04-04T12:24:21.676Z,9.77
2023-04-04T12:26:52.918Z,10.17
2023-04-04T12:29:22.379Z,9.78
2023-04-04T12:31:51.118Z,9.94
2023-04-04T12:34:19.204Z,10.80
2023-04-04T12:36:48.510Z,10.38
2023-04-04T12:39:18.046Z,9.96
2023-04-04T12:41:53.148Z,10.24
2023-04-04T12:44:29.256Z,11.15
2023-04-04T12:46:59.984Z,11.77
2023-04-04T12:49:30.180Z,12.17
2023-04-04T12:52:00.564Z,10.75
2023-04-04T12:54:29.687Z,10.61
2023-04-04T12:56:59.412Z,10.73
2023-04-04T12:59:30.330Z,11.64
2023-04-04T13:01:58.307Z,11.92
2023-04-04T13:04:26.104Z,12.52
2023-04-04T13:08:34.586Z,12.55
2023-04-04T13:11:06.878Z,12.42
2023-04-04T13:13:36.419Z,11.43
2023-04-04T13:16:06.241Z,11.51
2023-04-04T13:18:37.312Z,11.67
2023-04-04T13:21:05.778Z,12.15
2023-04-04T13:23:35.713Z,12.34
2023-04-04T13:26:04.601Z,11.31
2023-04-04T13:28:33.095Z,10.92
2023-04-04T13:31:03.904Z,11.34
2023-04-04T13:33:31.765Z,11.94
2023-04-04T13:35:59.952Z,11.34
2023-04-04T13:38:28.055Z,11.21
2023-04-04T13:40:58.847Z,11.74
2023-04-04T13:43:26.617Z,11.46
2023-04-04T13:45:55.612Z,11.63
2023-04-04T13:48:23.855Z,11.27
2023-04-04T13:50:53.097Z,11.42
2023-04-04T13:53:21.616Z,11.70
2023-04-04T13:56:02.188Z,11.33
2023-04-04T13:58:38.847Z,11.49
2023-04-04T14:01:07.117Z,11.86
2023-04-04T14:03:35.069Z,12.36
2023-04-04T14:06:09.718Z,12.32
2023-04-04T14:08:37.916Z,11.22
2023-04-04T14:11:05.788Z,11.11
2023-04-04T14:13:33.631Z,11.47
2023-04-04T14:16:02.705Z,11.23
2023-04-04T14:18:30.583Z,12.17
2023-04-04T14:20:58.373Z,11.32
2023-04-04T14:23:26.353Z,11.33
2023-04-04T14:25:54.292Z,11.07
2023-04-04T14:28:22.035Z,12.04
2023-04-04T14:30:51.045Z,11.49
2023-04-04T14:33:20.549Z,10.63
2023-04-04T14:35:48.644Z,11.12
2023-04-04T14:38:17.294Z,11.17
2023-04-04T14:40:45.160Z,11.21
2023-04-04T14:43:12.865Z,10.56
2023-04-04T14:45:41.772Z,11.65
2023-04-04T14:48:09.820Z,11.72
2023-04-04T14:50:40.272Z,11.34
2023-04-04T14:53:08.064Z,11.32
2023-04-04T14:55:35.804Z,11.49
2023-04-04T14:58:03.632Z,11.35
2023-04-04T15:00:31.414Z,12.03
2023-04-04T15:02:59.428Z,12.67
2023-04-04T15:05:27.326Z,12.31
2023-04-04T15:07:56.646Z,11.76
2023-04-04T15:10:24.740Z,11.43
2023-04-04T15:12:52.444Z,12.07
2023-04-04T15:15:21.662Z,12.66
2023-04-04T15:17:52.045Z,12.53
2023-04-04T15:20:19.753Z,12.46
2023-04-04T15:22:47.529Z,13.16
2023-04-04T15:25:16.702Z,13.19
2023-04-04T15:27:44.430Z,12.39
2023-04-04T15:30:14.184Z,11.67
2023-04-04T15:32:41.906Z,11.86
2023-04-04T15:35:17.250Z,12.49
2023-04-04T15:37:44.944Z,12.32
2023-04-04T15:40:13.379Z,12.24
2023-04-04T15:42:42.736Z,11.35
2023-04-04T15:45:12.008Z,11.69
2023-04-04T15:47:40.096Z,11.81
2023-04-04T15:50:08.948Z,11.86
2023-04-04T15:52:36.673Z,11.60
2023-04-04T15:55:05.002Z,12.14
2023-04-04T15:57:32.675Z,12.03
2023-04-04T16:00:01.803Z,12.28
2023-04-04T16:02:29.513Z,11.29
2023-04-04T16:04:57.251Z,11.24
2023-04-04T16:07:24.976Z,10.92
2023-04-04T16:09:52.746Z,11.09
2023-04-04T16:12:20.459Z,11.32
2023-04-04T16:14:48.142Z,10.69
2023-04-04T16:17:17.319Z,11.05
2023-04-04T16:19:45.031Z,10.99
2023-04-04T16:22:15.168Z,11.50
2023-04-04T16:24:42.959Z,11.14
2023-04-04T16:27:10.749Z,10.75
2023-04-04T16:29:38.453Z,11.52
2023-04-04T16:32:08.162Z,11.57
2023-04-04T16:34:38.790Z,11.28
2023-04-04T16:37:06.778Z,10.97
2023-04-04T16:39:34.528Z,10.43
2023-04-04T16:42:02.393Z,10.80
2023-04-04T16:44:30.122Z,11.09
2023-04-04T16:46:58.043Z,10.45
2023-04-04T16:49:25.828Z,10.68
2023-04-04T16:51:54.906Z,10.90
2023-04-04T16:54:22.680Z,11.18
2023-04-04T16:56:50.396Z,10.97
2023-04-04T16:59:18.111Z,11.27
2023-04-04T17:01:48.934Z,10.96
2023-04-04T17:04:16.922Z,10.83
2023-04-04T17:06:45.787Z,10.60
2023-04-04T17:09:14.887Z,10.51
2023-04-04T17:11:44.706Z,10.80
2023-04-04T17:14:12.872Z,10.65
2023-04-04T17:16:40.645Z,10.76
2023-04-04T17:19:08.414Z,10.50
2023-04-04T17:21:36.293Z,10.67
2023-04-04T17:24:04.121Z,10.25
2023-04-04T17:26:33.168Z,10.15
2023-04-04T17:29:00.865Z,10.74
2023-04-04T17:31:28.683Z,10.75
2023-04-04T17:33:56.557Z,10.14
2023-04-04T17:36:24.303Z,10.00
2023-04-04T17:38:52.033Z,10.21
2023-04-04T17:41:19.787Z,9.41
2023-04-04T17:43:48.857Z,10.45
2023-04-04T17:46:17.011Z,10.08
2023-04-04T17:48:44.835Z,9.74
2023-04-04T17:51:13.238Z,10.04
2023-04-04T17:53:41.020Z,9.72
2023-04-04T17:56:08.694Z,9.85
2023-04-04T17:58:36.479Z,9.70
2023-04-04T18:01:06.476Z,9.65
2023-04-04T18:03:34.312Z,9.85
2023-04-04T18:06:02.471Z,9.81
2023-04-04T18:08:30.416Z,9.80
2023-04-04T18:10:58.945Z,9.66
2023-04-04T18:13:26.687Z,9.20
2023-04-04T18:15:54.600Z,9.59
2023-04-04T18:18:24.768Z,9.51
2023-04-04T18:20:54.334Z,9.72
2023-04-04T18:23:22.593Z,9.63
2023-04-04T18:25:50.447Z,9.48
2023-04-04T18:28:18.146Z,9.39
2023-04-04T18:30:46.038Z,9.46
2023-04-04T18:33:13.729Z,9.54
2023-04-04T18:35:42.861Z,9.84
2023-04-04T18:38:11.033Z,9.10
2023-04-04T18:40:39.238Z,9.29
2023-04-04T18:43:07.430Z,8.98
2023-04-04T18:45:40.231Z,8.65
2023-04-04T18:48:09.230Z,9.04
2023-04-04T18:50:37.176Z,8.87
2023-04-04T18:53:06.352Z,8.93
2023-04-04T18:55:34.136Z,8.67
2023-04-04T18:58:01.891Z,8.66
2023-04-04T19:00:29.657Z,8.56
2023-04-04T19:02:57.954Z,8.77
2023-04-04T19:05:26.124Z,8.69
2023-04-04T19:07:54.727Z,8.72
2023-04-04T19:10:24.014Z,8.56
2023-04-04T19:12:51.836Z,8.54
2023-04-04T19:15:19.613Z,8.25
2023-04-04T19:17:47.477Z,8.73
2023-04-04T19:20:15.258Z,8.48
2023-04-04T19:22:43.124Z,8.36
2023-04-04T19:25:11.088Z,8.33
2023-04-04T19:27:40.267Z,8.39
2023-04-04T19:30:13.635Z,8.49
2023-04-04T19:32:41.684Z,7.96
2023-04-04T19:35:21.130Z,7.89
2023-04-04T19:37:48.893Z,7.85
2023-04-04T19:40:16.890Z,8.00
2023-04-04T19:42:45.977Z,7.94
2023-04-04T19:45:14.258Z,7.83
2023-04-04T19:47:42.199Z,7.71
2023-04-04T19:50:10.846Z,7.80
2023-04-04T19:52:38.504Z,7.81
2023-04-04T19:55:09.686Z,7.90
2023-04-04T19:57:38.775Z,7.76
2023-04-04T20:00:13.368Z,7.79
2023-04-04T20:03:00.499Z,7.96
2023-04-04T20:05:57.706Z,7.77
2023-04-04T20:08:41.027Z,7.73
2023-04-04T20:11:09.196Z,8.05
2023-04-04T20:13:38.120Z,7.86
2023-04-04T20:16:09.366Z,7.87
2023-04-04T20:18:38.281Z,8.00
2023-04-04T20:21:11.213Z,7.72
2023-04-04T20:23:45.560Z,7.88
2023-04-04T20:26:16.073Z,7.86
2023-04-04T20:28:47.436Z,7.85
2023-04-04T20:31:18.266Z,7.90
2023-04-04T20:33:46.194Z,7.39
2023-04-04T20:36:31.543Z,7.37
2023-04-04T20:38:59.676Z,7.35
2023-04-04T20:41:27.592Z,7.70
2023-04-04T20:43:57.042Z,7.86
2023-04-04T20:46:28.143Z,7.64
2023-04-04T20:48:57.021Z,7.35
2023-04-04T20:51:30.033Z,7.67
2023-04-04T20:53:59.657Z,7.69
2023-04-04T20:56:52.399Z,7.62
2023-04-04T20:59:35.209Z,7.25
2023-04-04T21:02:16.737Z,7.31
2023-04-04T21:04:48.085Z,7.28
2023-04-04T21:07:36.914Z,6.98
2023-04-04T21:10:20.577Z,6.64
2023-04-04T21:12:48.262Z,6.81
2023-04-04T21:15:22.470Z,6.55
2023-04-04T21:17:51.956Z,6.77
2023-04-04T21:20:53.901Z,6.75
2023-04-04T21:23:31.140Z,6.56
2023-04-04T21:25:59.985Z,6.73
2023-04-04T21:28:30.760Z,6.56
2023-04-04T21:30:58.733Z,6.56
2023-04-04T21:33:28.172Z,6.59
2023-04-04T21:35:57.050Z,5.70
2023-04-04T21:38:29.506Z,5.95
2023-04-04T21:40:58.851Z,5.94
2023-04-04T21:43:26.812Z,6.01
2023-04-04T21:45:55.429Z,6.06
2023-04-04T21:48:23.464Z,6.36
2023-04-04T21:50:52.515Z,6.23
2023-04-04T21:53:21.903Z,6.31
2023-04-04T21:55:49.610Z,6.38
2023-04-04T21:58:17.242Z,6.19
2023-04-04T22:00:44.962Z,6.30
2023-04-04T22:03:12.684Z,6.05
2023-04-04T22:05:40.563Z,6.25
2023-04-04T22:08:09.963Z,6.13
2023-04-04T22:10:45.293Z,5.98
2023-04-04T22:13:14.651Z,5.85
2023-04-04T22:15:44.039Z,5.53
2023-04-04T22:18:14.927Z,5.70
2023-04-04T22:20:44.814Z,5.82
2023-04-04T22:25:46.664Z,5.60
2023-04-04T22:28:18.062Z,5.52
2023-04-04T22:30:46.004Z,5.63
2023-04-04T22:33:13.700Z,5.61
2023-04-04T22:35:41.434Z,5.57
2023-04-04T22:38:09.216Z,5.65
2023-04-04T22:40:36.903Z,5.58
2023-04-04T22:43:06.093Z,5.47
2023-04-04T22:45:34.485Z,5.35
2023-04-04T22:48:03.654Z,5.56
2023-04-04T22:50:31.366Z,5.47
2023-04-04T22:53:01.274Z,5.17
2023-04-04T22:55:29.440Z,5.22
2023-04-04T22:57:57.191Z,5.23
2023-04-04T23:00:26.257Z,5.07
2023-04-04T23:02:54.054Z,5.09
2023-04-04T23:05:21.798Z,5.25
2023-04-04T23:07:52.553Z,5.27
2023-04-04T23:10:20.664Z,5.00
2023-04-04T23:12:48.828Z,5.43
2023-04-04T23:15:16.929Z,5.28
2023-04-04T23:17:46.615Z,5.10
2023-04-04T23:20:14.537Z,4.90
2023-04-04T23:22:42.629Z,4.71
2023-04-04T23:25:10.969Z,4.92
2023-04-04T23:27:38.664Z,5.17
2023-04-04T23:30:07.542Z,4.92
2023-04-04T23:32:35.437Z,4.91
2023-04-04T23:35:04.839Z,4.53
2023-04-04T23:37:32.499Z,4.34
2023-04-04T23:40:00.165Z,4.57
2023-04-04T23:42:27.845Z,4.38
2023-04-04T23:44:55.631Z,4.76
2023-04-04T23:47:23.335Z,4.60
2023-04-04T23:49:51.602Z,4.57
2023-04-04T23:52:20.848Z,4.46
2023-04-04T23:54:48.522Z,4.43
2023-04-04T23:57:17.026Z,4.34
2023-04-04T23:59:44.763Z,4.66
